Fort Harrison, Montana
Current Conditions -  °F | °C
As of 4:53 AM on Monday 22 Dec 2014 (Local Time) from KHLN Reporting Station
Clear Clear  
Wind Chill: 29°   Ceiling: Unl
Heat Index: 38°   Visibility: 10mi
Dew Point: 23°   Wind: 15mph
Humidity: 55%   Direction: 290°WNW
Pressure: 29.81"   Gusts: 30mph
Location:  46.6°N, 112.09°W
Report Text: KHLN 221153Z 29013G26KT 10SM CLR 03/M05 A2981 RMK AO2 PK WND 27030/1138 SLP122 70006 T00331050 10044 20022 53009
Loading
Personal Weather Stations






























Interactive Weather Map New forecast layout! Learn more

10-Day Weather Forecast

Advertisements
Track Severe Weather on mobile